createdAt,value
2022-09-01T00:00:03.173Z,19.35
2022-09-01T00:03:07.187Z,19.03
2022-09-01T00:06:11.752Z,18.96
2022-09-01T00:09:19.315Z,18.83
2022-09-01T00:12:22.837Z,18.81
2022-09-01T00:15:25.567Z,18.65
2022-09-01T00:18:27.908Z,18.45
2022-09-01T00:21:33.966Z,18.38
2022-09-01T00:24:36.382Z,18.24
2022-09-01T00:27:38.713Z,18.07
2022-09-01T00:30:41.422Z,17.93
2022-09-01T00:33:43.705Z,17.97
2022-09-01T00:36:46.367Z,17.69
2022-09-01T00:39:49.269Z,17.66
2022-09-01T00:42:53.801Z,17.56
2022-09-01T00:45:57.842Z,17.52
2022-09-01T00:49:08.070Z,17.40
2022-09-01T00:52:17.093Z,17.35
2022-09-01T00:55:25.341Z,17.38
2022-09-01T00:58:27.711Z,17.43
2022-09-01T01:01:30.208Z,17.50
2022-09-01T01:04:32.553Z,17.49
2022-09-01T01:07:38.915Z,17.39
2022-09-01T01:10:42.640Z,17.32
2022-09-01T01:13:56.866Z,17.36
2022-09-01T01:17:00.703Z,17.33
2022-09-01T01:20:24.106Z,17.49
2022-09-01T01:23:54.968Z,17.63
2022-09-01T01:27:00.199Z,17.47
2022-09-01T01:30:09.962Z,17.46
2022-09-01T01:33:12.683Z,17.40
2022-09-01T01:36:21.595Z,17.19
2022-09-01T01:39:28.755Z,17.09
2022-09-01T01:42:33.503Z,16.92
2022-09-01T01:45:35.885Z,16.82
2022-09-01T01:48:40.964Z,16.87
2022-09-01T01:51:44.091Z,16.81
2022-09-01T01:54:48.035Z,16.70
2022-09-01T01:57:50.609Z,16.65
2022-09-01T02:00:54.246Z,16.60
2022-09-01T02:03:57.796Z,16.54
2022-09-01T02:07:03.182Z,16.54
2022-09-01T02:10:05.975Z,16.44
2022-09-01T02:13:11.946Z,16.38
2022-09-01T02:16:14.413Z,16.37
2022-09-01T02:19:21.012Z,16.46
2022-09-01T02:22:23.415Z,16.40
2022-09-01T02:25:27.539Z,16.26
2022-09-01T02:28:36.894Z,16.20
2022-09-01T02:31:39.899Z,16.26
2022-09-01T02:34:42.460Z,16.09
2022-09-01T02:37:46.351Z,16.02
2022-09-01T02:40:48.875Z,16.03
2022-09-01T02:43:54.210Z,16.06
2022-09-01T02:46:57.712Z,15.86
2022-09-01T02:50:03.603Z,16.00
2022-09-01T02:53:10.227Z,16.13
2022-09-01T02:56:14.273Z,16.13
2022-09-01T02:59:21.739Z,16.07
2022-09-01T03:02:26.887Z,16.21
2022-09-01T03:05:34.533Z,16.13
2022-09-01T03:08:38.760Z,16.06
2022-09-01T03:11:44.014Z,16.06
2022-09-01T03:14:46.327Z,16.12
2022-09-01T03:17:49.564Z,15.95
2022-09-01T03:20:53.152Z,16.10
2022-09-01T03:23:58.146Z,16.10
2022-09-01T03:27:01.156Z,16.13
2022-09-01T03:30:04.411Z,16.10
2022-09-01T03:33:07.963Z,16.13
2022-09-01T03:36:19.333Z,16.07
2022-09-01T03:39:22.074Z,16.06
2022-09-01T03:42:26.002Z,16.09
2022-09-01T03:45:29.631Z,16.05
2022-09-01T03:48:32.470Z,16.06
2022-09-01T03:51:35.365Z,16.10
2022-09-01T03:54:38.109Z,16.07
2022-09-01T03:57:42.455Z,16.03
2022-09-01T04:00:49.908Z,16.05
2022-09-01T04:03:53.047Z,16.03
2022-09-01T04:07:02.804Z,16.10
2022-09-01T04:10:11.529Z,16.12
2022-09-01T04:13:14.075Z,16.03
2022-09-01T04:16:42.297Z,16.09
2022-09-01T04:19:44.951Z,16.12
2022-09-01T04:22:47.809Z,16.16
2022-09-01T04:25:50.721Z,16.09
2022-09-01T04:28:55.920Z,16.07
2022-09-01T04:32:05.691Z,16.07
2022-09-01T04:35:11.613Z,16.07
2022-09-01T04:38:16.197Z,16.14
2022-09-01T04:41:20.652Z,16.12
2022-09-01T04:44:23.413Z,16.14
2022-09-01T04:47:36.082Z,16.06
2022-09-01T04:50:42.187Z,16.16
2022-09-01T04:54:02.956Z,16.14
2022-09-01T04:57:09.268Z,16.17
2022-09-01T05:00:22.476Z,16.05
2022-09-01T05:03:25.038Z,16.06
2022-09-01T05:06:39.928Z,16.00
2022-09-01T05:09:42.384Z,16.03
2022-09-01T05:12:48.144Z,16.09
2022-09-01T05:16:07.592Z,16.19
2022-09-01T05:19:14.744Z,16.14
2022-09-01T05:22:22.277Z,16.14
2022-09-01T05:25:32.290Z,16.10
2022-09-01T05:28:35.121Z,16.19
2022-09-01T05:31:37.860Z,16.20
2022-09-01T05:34:45.195Z,16.26
2022-09-01T05:37:51.781Z,16.29
2022-09-01T05:41:02.126Z,16.24
2022-09-01T05:44:08.115Z,16.12
2022-09-01T05:47:20.970Z,16.16
2022-09-01T05:50:28.285Z,16.14
2022-09-01T05:53:31.064Z,16.16
2022-09-01T05:56:33.922Z,16.14
2022-09-01T05:59:42.364Z,16.00
2022-09-01T06:02:51.796Z,15.99
2022-09-01T06:06:08.759Z,15.95
2022-09-01T06:09:12.033Z,15.97
2022-09-01T06:12:20.349Z,16.09
2022-09-01T06:15:22.928Z,16.02
2022-09-01T06:18:27.933Z,16.07
2022-09-01T06:21:33.477Z,15.96
2022-09-01T06:24:36.880Z,16.05
2022-09-01T06:27:44.703Z,15.88
2022-09-01T06:30:48.088Z,15.81
2022-09-01T06:33:53.468Z,15.93
2022-09-01T06:36:56.602Z,15.72
2022-09-01T06:39:59.212Z,15.62
2022-09-01T06:43:07.899Z,15.63
2022-09-01T06:46:13.080Z,15.55
2022-09-01T06:49:15.617Z,15.68
2022-09-01T06:52:18.190Z,15.63
2022-09-01T06:55:20.661Z,15.72
2022-09-01T06:58:25.263Z,15.79
2022-09-01T07:01:29.039Z,15.76
2022-09-01T07:04:32.233Z,15.70
2022-09-01T07:18:21.458Z,15.68
2022-09-01T07:21:42.449Z,15.73
2022-09-01T07:25:11.558Z,15.69
2022-09-01T07:28:25.498Z,15.78
2022-09-01T07:34:57.350Z,15.73
2022-09-01T07:42:30.800Z,15.78
2022-09-01T07:45:29.358Z,16.07
2022-09-01T07:48:36.463Z,16.05
2022-09-01T07:51:59.812Z,16.24
2022-09-01T07:55:03.685Z,16.07
2022-09-01T07:58:06.538Z,16.05
2022-09-01T08:01:20.671Z,16.07
2022-09-01T08:04:24.499Z,16.13
2022-09-01T08:07:26.965Z,16.06
2022-09-01T08:10:29.761Z,16.21
2022-09-01T08:13:44.160Z,16.26
2022-09-01T08:16:53.866Z,16.34
2022-09-01T08:20:03.254Z,16.44
2022-09-01T08:23:26.471Z,16.38
2022-09-01T08:26:35.099Z,16.24
2022-09-01T08:29:38.752Z,16.17
2022-09-01T08:32:42.315Z,15.90
2022-09-01T08:35:48.486Z,15.95
2022-09-01T08:38:52.712Z,15.83
2022-09-01T08:42:09.045Z,15.83
2022-09-01T08:45:44.531Z,15.70
2022-09-01T08:53:09.174Z,15.76
2022-09-01T08:56:13.694Z,15.65
2022-09-01T08:59:17.608Z,15.70
2022-09-01T09:02:42.535Z,15.81
2022-09-01T09:06:07.270Z,15.78
2022-09-01T09:09:10.511Z,15.92
2022-09-01T09:12:48.967Z,15.97
2022-09-01T09:16:07.475Z,16.10
2022-09-01T09:19:33.183Z,16.24
2022-09-01T09:22:35.571Z,16.33
2022-09-01T09:25:37.804Z,16.26
2022-09-01T09:28:40.407Z,16.31
2022-09-01T09:31:50.366Z,16.58
2022-09-01T09:34:53.057Z,16.85
2022-09-01T09:37:56.242Z,16.92
2022-09-01T09:41:17.849Z,17.22
2022-09-01T09:44:29.934Z,17.26
2022-09-01T09:47:43.556Z,17.16
2022-09-01T09:50:46.870Z,17.19
2022-09-01T09:53:49.700Z,17.08
2022-09-01T09:57:18.134Z,17.11
2022-09-01T10:00:25.763Z,17.08
2022-09-01T10:03:36.529Z,17.18
2022-09-01T10:06:42.244Z,17.09
2022-09-01T10:09:44.937Z,16.96
2022-09-01T10:12:47.211Z,16.78
2022-09-01T10:15:56.008Z,16.79
2022-09-01T10:19:00.981Z,16.89
2022-09-01T10:22:03.564Z,16.68
2022-09-01T10:25:10.535Z,16.70
2022-09-01T10:28:21.409Z,16.91
2022-09-01T10:31:29.529Z,16.85
2022-09-01T10:34:37.504Z,16.99
2022-09-01T10:37:41.427Z,16.98
2022-09-01T10:40:50.070Z,17.19
2022-09-01T10:43:52.577Z,17.36
2022-09-01T10:47:00.191Z,17.52
2022-09-01T10:50:23.321Z,17.67
2022-09-01T10:53:34.458Z,17.73
2022-09-01T10:56:51.485Z,17.66
2022-09-01T10:59:57.085Z,17.66
2022-09-01T11:06:42.964Z,17.79
2022-09-01T11:10:36.083Z,17.81
2022-09-01T11:13:55.778Z,17.74
2022-09-01T11:17:16.956Z,17.76
2022-09-01T11:20:33.998Z,17.73
2022-09-01T11:23:37.170Z,17.74
2022-09-01T11:26:48.401Z,17.63
2022-09-01T11:30:00.344Z,17.56
2022-09-01T11:33:11.652Z,17.65
2022-09-01T11:36:48.721Z,17.63
2022-09-01T11:40:04.032Z,17.67
2022-09-01T11:43:12.848Z,17.76
2022-09-01T11:46:25.098Z,17.70
2022-09-01T11:50:09.364Z,17.89
2022-09-01T11:53:22.801Z,17.87
2022-09-01T11:56:27.293Z,17.98
2022-09-01T11:59:37.910Z,18.05
2022-09-01T12:02:50.092Z,18.05
2022-09-01T12:06:00.409Z,18.28
2022-09-01T12:09:05.153Z,18.21
2022-09-01T12:12:26.872Z,18.17
2022-09-01T12:15:30.716Z,18.37
2022-09-01T12:18:37.293Z,18.37
2022-09-01T12:21:56.027Z,18.27
2022-09-01T12:24:58.299Z,18.48
2022-09-01T12:28:03.216Z,18.47
2022-09-01T12:31:08.156Z,18.20
2022-09-01T12:34:28.402Z,18.15
2022-09-01T12:37:31.209Z,18.10
2022-09-01T12:40:35.956Z,18.10
2022-09-01T12:43:40.840Z,18.05
2022-09-01T12:46:44.951Z,18.05
2022-09-01T12:49:52.112Z,17.89
2022-09-01T12:52:58.321Z,18.00
2022-09-01T12:56:26.326Z,17.93
2022-09-01T12:59:37.335Z,18.00
2022-09-01T13:02:46.114Z,18.02
2022-09-01T13:05:53.966Z,18.10
2022-09-01T13:08:56.765Z,18.22
2022-09-01T13:12:31.722Z,18.17
2022-09-01T13:15:35.509Z,17.93
2022-09-01T13:22:01.977Z,17.62
2022-09-01T13:25:05.428Z,17.67
2022-09-01T13:28:10.918Z,17.67
2022-09-01T13:31:29.709Z,17.70
2022-09-01T13:34:32.825Z,17.62
2022-09-01T13:37:35.838Z,17.62
2022-09-01T13:40:38.092Z,17.77
2022-09-01T13:43:40.415Z,17.65
2022-09-01T13:46:59.439Z,17.65
2022-09-01T13:50:11.328Z,17.80
2022-09-01T13:53:14.306Z,17.71
2022-09-01T13:56:16.566Z,17.54
2022-09-01T13:59:18.809Z,17.62
2022-09-01T14:02:21.604Z,17.54
2022-09-01T14:05:27.176Z,17.49
2022-09-01T14:08:30.304Z,17.32
2022-09-01T14:11:32.633Z,17.43
2022-09-01T14:17:58.116Z,17.43
2022-09-01T14:21:01.331Z,17.36
2022-09-01T14:27:11.857Z,17.43
2022-09-01T14:30:18.628Z,17.47
2022-09-01T14:33:24.340Z,17.45
2022-09-01T14:36:26.952Z,17.39
2022-09-01T14:39:31.000Z,17.46
2022-09-01T14:42:33.605Z,17.56
2022-09-01T14:45:39.196Z,17.45
2022-09-01T14:48:41.553Z,17.30
2022-09-01T14:55:07.531Z,17.32
2022-09-01T14:58:10.172Z,17.15
2022-09-01T15:01:33.238Z,17.18
2022-09-01T15:04:36.407Z,17.09
2022-09-01T15:07:39.115Z,17.04
2022-09-01T15:10:41.783Z,17.12
2022-09-01T15:13:45.477Z,17.09
2022-09-01T15:16:47.759Z,17.02
2022-09-01T15:19:50.035Z,16.96
2022-09-01T15:22:52.678Z,16.82
2022-09-01T15:25:56.203Z,16.95
2022-09-01T15:28:59.026Z,16.94
2022-09-01T15:32:01.875Z,16.92
2022-09-01T15:35:04.571Z,16.87
2022-09-01T15:38:10.363Z,16.99
2022-09-01T15:41:18.635Z,16.94
2022-09-01T15:44:22.224Z,16.87
2022-09-01T15:47:24.541Z,16.85
2022-09-01T15:50:27.994Z,16.88
2022-09-01T15:53:30.296Z,16.81
2022-09-01T15:56:32.840Z,16.77
2022-09-01T15:59:35.437Z,16.79
2022-09-01T16:02:38.135Z,16.89
2022-09-01T16:05:41.476Z,16.87
2022-09-01T16:08:44.004Z,16.92
2022-09-01T16:11:47.314Z,17.05
2022-09-01T16:14:50.744Z,17.11
2022-09-01T16:18:15.511Z,17.14
2022-09-01T16:21:53.047Z,17.08
2022-09-01T16:25:00.277Z,17.15
2022-09-01T16:28:10.504Z,17.11
2022-09-01T16:31:19.143Z,17.22
2022-09-01T16:34:26.254Z,17.28
2022-09-01T16:37:48.675Z,17.25
2022-09-01T16:41:10.084Z,17.18
2022-09-01T16:44:18.442Z,17.15
2022-09-01T16:47:40.533Z,16.82
2022-09-01T16:51:16.909Z,16.99
2022-09-01T16:54:37.832Z,16.85
2022-09-01T16:57:59.312Z,16.78
2022-09-01T17:01:15.639Z,16.99
2022-09-01T17:04:44.644Z,17.08
2022-09-01T17:07:55.696Z,17.16
2022-09-01T17:11:19.173Z,17.11
2022-09-01T17:14:39.870Z,17.07
2022-09-01T17:18:01.677Z,17.14
2022-09-01T17:21:32.388Z,17.15
2022-09-01T17:24:48.155Z,17.22
2022-09-01T17:28:04.410Z,17.32
2022-09-01T17:31:10.282Z,17.36
2022-09-01T17:34:34.850Z,17.35
2022-09-01T17:37:46.000Z,17.18
2022-09-01T17:40:53.083Z,17.18
2022-09-01T17:44:26.642Z,16.92
2022-09-01T17:47:55.752Z,16.79
2022-09-01T17:51:09.147Z,16.72
2022-09-01T17:54:54.877Z,16.67
2022-09-01T17:58:04.780Z,16.63
2022-09-01T18:01:30.166Z,16.67
2022-09-01T18:04:56.598Z,16.68
2022-09-01T18:08:11.519Z,16.70
2022-09-01T18:11:23.040Z,16.71
2022-09-01T18:14:33.021Z,16.71
2022-09-01T18:17:40.305Z,16.75
2022-09-01T18:20:46.415Z,16.68
2022-09-01T18:23:54.457Z,16.78
2022-09-01T18:26:56.811Z,16.82
2022-09-01T18:30:01.340Z,16.89
2022-09-01T18:33:45.016Z,16.99
2022-09-01T18:37:02.403Z,17.02
2022-09-01T18:40:28.502Z,17.07
2022-09-01T18:43:36.998Z,17.12
2022-09-01T18:47:03.316Z,17.12
2022-09-01T18:50:28.017Z,17.15
2022-09-01T18:53:57.969Z,17.22
2022-09-01T18:57:01.714Z,17.22
2022-09-01T19:00:18.165Z,17.20
2022-09-01T19:03:32.427Z,17.19
2022-09-01T19:06:35.136Z,17.23
2022-09-01T19:09:47.941Z,17.12
2022-09-01T19:13:01.377Z,16.87
2022-09-01T19:16:48.789Z,16.92
2022-09-01T19:20:05.132Z,16.96
2022-09-01T19:23:46.154Z,17.01
2022-09-01T19:26:51.815Z,16.79
2022-09-01T19:29:59.432Z,16.72
2022-09-01T19:33:05.276Z,16.60
2022-09-01T19:36:11.918Z,16.67
2022-09-01T19:39:17.105Z,16.77
2022-09-01T19:42:36.603Z,16.82
2022-09-01T19:45:46.158Z,16.91
2022-09-01T19:49:03.809Z,17.12
2022-09-01T19:52:32.283Z,17.12
2022-09-01T19:56:01.318Z,17.15
2022-09-01T19:59:31.689Z,17.28
2022-09-01T20:02:51.490Z,17.30
2022-09-01T20:06:16.789Z,17.32
2022-09-01T20:09:46.428Z,17.33
2022-09-01T20:13:34.984Z,17.49
2022-09-01T20:16:44.332Z,17.47
2022-09-01T20:19:53.439Z,17.32
2022-09-01T20:23:01.859Z,17.32
2022-09-01T20:26:23.237Z,17.28
2022-09-01T20:29:37.590Z,17.26
2022-09-01T20:33:02.406Z,17.38
2022-09-01T20:36:12.757Z,17.43
2022-09-01T20:39:46.600Z,17.28
2022-09-01T20:43:22.877Z,17.33
2022-09-01T20:46:26.537Z,17.38
2022-09-01T20:49:28.874Z,17.45
2022-09-01T20:52:31.409Z,17.43
2022-09-01T20:55:39.814Z,17.49
2022-09-01T20:58:52.565Z,17.49
2022-09-01T21:02:31.664Z,17.46
2022-09-01T21:05:45.384Z,17.47
2022-09-01T21:09:12.510Z,17.53
2022-09-01T21:12:29.577Z,17.57
2022-09-01T21:15:48.401Z,17.62
2022-09-01T21:18:59.425Z,17.62
2022-09-01T21:22:01.714Z,17.59
2022-09-01T21:25:04.652Z,17.67
2022-09-01T21:28:06.964Z,17.56
2022-09-01T21:31:10.369Z,17.53
2022-09-01T21:34:16.687Z,17.53
2022-09-01T21:37:22.350Z,17.57
2022-09-01T21:40:25.734Z,17.57
2022-09-01T21:43:43.699Z,17.62
2022-09-01T21:46:46.089Z,17.54
2022-09-01T21:49:48.514Z,17.53
2022-09-01T21:52:51.212Z,17.40
2022-09-01T21:55:53.457Z,17.49
2022-09-01T21:58:58.250Z,17.49
2022-09-01T22:02:01.041Z,17.56
2022-09-01T22:05:05.649Z,17.50
2022-09-01T22:08:13.307Z,17.52
2022-09-01T22:11:16.610Z,17.46
2022-09-01T22:14:20.291Z,17.42
2022-09-01T22:17:22.793Z,17.43
2022-09-01T22:20:28.493Z,17.47
2022-09-01T22:23:31.039Z,17.49
2022-09-01T22:26:33.796Z,17.43
2022-09-01T22:29:36.161Z,17.57
2022-09-01T22:32:45.303Z,17.45
2022-09-01T22:35:50.501Z,17.45
2022-09-01T22:38:53.139Z,17.40
2022-09-01T22:41:55.587Z,17.47
2022-09-01T22:44:57.860Z,17.46
2022-09-01T22:48:00.130Z,17.43
2022-09-01T22:51:07.176Z,17.45
2022-09-01T22:54:10.707Z,17.54
2022-09-01T22:57:13.345Z,17.54
2022-09-01T23:00:15.643Z,17.59
2022-09-01T23:03:19.619Z,17.47
2022-09-01T23:06:27.445Z,17.50
2022-09-01T23:09:30.487Z,17.59
2022-09-01T23:12:32.934Z,17.56
2022-09-01T23:15:35.224Z,17.56
2022-09-01T23:18:39.915Z,17.43
2022-09-01T23:21:42.189Z,17.47
2022-09-01T23:24:44.486Z,17.52
2022-09-01T23:27:46.752Z,17.53
2022-09-01T23:30:50.937Z,17.52
2022-09-01T23:33:54.274Z,17.54
2022-09-01T23:36:56.583Z,17.57
2022-09-01T23:39:58.938Z,17.53
2022-09-01T23:43:01.933Z,17.56
2022-09-01T23:46:04.536Z,17.47
2022-09-01T23:49:07.689Z,17.56
2022-09-01T23:52:10.007Z,17.66
2022-09-01T23:55:12.440Z,17.63
2022-09-01T23:58:14.915Z,17.56
